Terminal Aerodrome Forecast
Issued by NWS

Home | Current Version | Previous Version | Graphics & Text | Print | Product List | Glossary On
Versions: 1 2 3 4 5 6 7 8 9 10 11 12 13
638
FTUS43 KMPX 240529
TAFAXN
TAF
KAXN 240529Z 2406/2506 23009KT P6SM BKN005 OVC040
     FM240700 28007KT P6SM SCT008 BKN040
     FM241600 30015G22KT P6SM FEW050 SCT250
     FM250100 29006KT P6SM SKC=

USA.gov is the U.S. government's official web portal to all federal, state and local government web resources and services.